createdAt,value
2022-10-21T00:02:27.809Z,17.84
2022-10-21T00:05:15.244Z,17.85
2022-10-21T00:08:02.094Z,17.85
2022-10-21T00:10:53.889Z,17.84
2022-10-21T00:13:41.466Z,17.86
2022-10-21T00:16:28.954Z,17.88
2022-10-21T00:19:15.898Z,17.90
2022-10-21T00:22:03.222Z,17.92
2022-10-21T00:24:49.901Z,17.94
2022-10-21T00:27:39.268Z,17.95
2022-10-21T00:30:26.386Z,17.97
2022-10-21T00:33:14.104Z,17.96
2022-10-21T00:36:02.951Z,17.96
2022-10-21T00:38:50.056Z,17.98
2022-10-21T00:41:37.089Z,17.96
2022-10-21T00:44:27.878Z,17.96
2022-10-21T00:47:18.906Z,17.97
2022-10-21T00:50:06.601Z,17.93
2022-10-21T00:52:54.734Z,17.94
2022-10-21T00:55:46.761Z,17.94
2022-10-21T00:58:35.725Z,17.94
2022-10-21T01:01:24.601Z,17.93
2022-10-21T01:04:11.257Z,17.94
2022-10-21T01:06:58.778Z,17.94
2022-10-21T01:09:45.585Z,17.95
2022-10-21T01:12:39.424Z,17.97
2022-10-21T01:15:32.558Z,17.97
2022-10-21T01:18:31.879Z,17.97
2022-10-21T01:21:31.286Z,17.97
2022-10-21T01:24:48.893Z,17.95
2022-10-21T01:27:48.880Z,17.98
2022-10-21T01:30:43.690Z,17.91
2022-10-21T01:33:53.104Z,17.90
2022-10-21T01:36:45.124Z,17.94
2022-10-21T01:39:40.002Z,17.88
2022-10-21T01:42:33.785Z,17.90
2022-10-21T01:45:26.723Z,17.90
2022-10-21T01:48:19.813Z,17.87
2022-10-21T01:51:08.640Z,17.86
2022-10-21T01:54:01.355Z,17.86
2022-10-21T01:56:49.903Z,17.86
2022-10-21T01:59:39.991Z,17.83
2022-10-21T02:02:31.510Z,17.82
2022-10-21T02:05:22.889Z,17.81
2022-10-21T02:08:10.307Z,17.80
2022-10-21T02:11:04.275Z,17.78
2022-10-21T02:13:57.641Z,17.76
2022-10-21T02:16:46.480Z,17.76
2022-10-21T02:19:34.020Z,17.75
2022-10-21T02:22:23.594Z,17.76
2022-10-21T02:25:14.386Z,17.76
2022-10-21T02:28:01.788Z,17.76
2022-10-21T02:30:57.499Z,17.78
2022-10-21T02:33:52.795Z,17.81
2022-10-21T02:36:50.861Z,17.84
2022-10-21T02:39:43.287Z,17.85
2022-10-21T02:42:34.975Z,17.86
2022-10-21T02:45:23.579Z,17.86
2022-10-21T02:48:10.554Z,17.88
2022-10-21T02:50:57.902Z,17.92
2022-10-21T02:53:44.781Z,17.93
2022-10-21T02:56:32.921Z,17.95
2022-10-21T02:59:19.793Z,17.99
2022-10-21T03:02:06.615Z,18.02
2022-10-21T03:04:53.536Z,18.05
2022-10-21T03:07:40.593Z,18.08
2022-10-21T03:10:27.549Z,18.10
2022-10-21T03:13:15.787Z,18.13
2022-10-21T03:16:02.601Z,18.14
2022-10-21T03:18:50.022Z,18.18
2022-10-21T03:21:36.737Z,18.20
2022-10-21T03:24:28.919Z,18.22
2022-10-21T03:27:16.109Z,18.24
2022-10-21T03:30:05.831Z,18.25
2022-10-21T03:32:52.922Z,18.21
2022-10-21T03:35:40.161Z,18.21
2022-10-21T03:38:27.055Z,18.24
2022-10-21T03:41:14.369Z,18.24
2022-10-21T03:44:01.205Z,18.27
2022-10-21T03:46:50.450Z,18.32
2022-10-21T03:49:37.409Z,18.33
2022-10-21T03:52:24.584Z,18.38
2022-10-21T03:55:11.688Z,18.42
2022-10-21T03:57:59.180Z,18.44
2022-10-21T04:00:45.871Z,18.46
2022-10-21T04:03:34.558Z,18.48
2022-10-21T04:06:21.780Z,18.50
2022-10-21T04:09:09.159Z,18.51
2022-10-21T04:11:55.952Z,18.51
2022-10-21T04:14:43.394Z,18.55
2022-10-21T04:17:30.485Z,18.55
2022-10-21T04:20:19.368Z,18.55
2022-10-21T04:23:05.838Z,18.55
2022-10-21T04:25:52.866Z,18.54
2022-10-21T04:28:40.052Z,18.55
2022-10-21T04:31:31.279Z,18.54
2022-10-21T04:34:19.100Z,18.54
2022-10-21T04:37:07.658Z,18.54
2022-10-21T04:39:57.203Z,18.53
2022-10-21T04:42:48.531Z,18.55
2022-10-21T04:45:35.331Z,18.56
2022-10-21T04:48:23.166Z,18.58
2022-10-21T04:51:10.375Z,18.58
2022-10-21T04:53:59.021Z,18.58
2022-10-21T04:56:45.699Z,18.58
2022-10-21T04:59:32.499Z,18.61
2022-10-21T05:02:21.719Z,18.60
2022-10-21T05:05:11.754Z,18.61
2022-10-21T05:07:58.874Z,18.65
2022-10-21T05:10:47.531Z,18.66
2022-10-21T05:13:34.642Z,18.66
2022-10-21T05:16:22.036Z,18.66
2022-10-21T05:19:08.941Z,18.68
2022-10-21T05:21:56.267Z,18.68
2022-10-21T05:24:43.459Z,18.68
2022-10-21T05:27:32.038Z,18.71
2022-10-21T05:30:18.910Z,18.72
2022-10-21T05:33:07.249Z,18.70
2022-10-21T05:35:58.959Z,18.70
2022-10-21T05:38:46.077Z,18.70
2022-10-21T05:41:34.313Z,18.71
2022-10-21T05:44:23.493Z,18.72
2022-10-21T05:47:10.686Z,18.72
2022-10-21T05:49:57.954Z,18.69
2022-10-21T05:52:44.624Z,18.69
2022-10-21T05:55:32.450Z,18.67
2022-10-21T05:58:19.262Z,18.67
2022-10-21T06:01:08.044Z,18.69
2022-10-21T06:03:55.014Z,18.65
2022-10-21T06:06:41.825Z,18.67
2022-10-21T06:09:29.254Z,18.67
2022-10-21T06:12:16.036Z,18.71
2022-10-21T06:15:03.430Z,18.73
2022-10-21T06:17:52.610Z,18.74
2022-10-21T06:20:40.124Z,18.77
2022-10-21T06:23:27.029Z,18.81
2022-10-21T06:26:15.463Z,18.84
2022-10-21T06:29:02.377Z,18.87
2022-10-21T06:31:49.785Z,18.89
2022-10-21T06:34:37.945Z,18.92
2022-10-21T06:37:25.456Z,19.00
2022-10-21T06:40:13.191Z,19.01
2022-10-21T06:43:00.374Z,19.08
2022-10-21T06:45:47.035Z,19.12
2022-10-21T06:48:35.048Z,19.18
2022-10-21T06:51:24.385Z,19.21
2022-10-21T06:54:11.595Z,19.24
2022-10-21T06:56:58.490Z,19.28
2022-10-21T06:59:45.417Z,19.31
2022-10-21T07:02:32.220Z,19.31
2022-10-21T07:05:20.010Z,19.31
2022-10-21T07:08:10.606Z,19.29
2022-10-21T07:10:59.985Z,19.39
2022-10-21T07:13:47.074Z,19.39
2022-10-21T07:16:35.855Z,19.44
2022-10-21T07:19:22.785Z,19.49
2022-10-21T07:22:10.249Z,19.61
2022-10-21T07:24:58.166Z,19.68
2022-10-21T07:27:48.149Z,19.77
2022-10-21T07:30:40.791Z,19.86
2022-10-21T07:33:28.287Z,19.90
2022-10-21T07:36:18.873Z,19.93
2022-10-21T07:39:10.261Z,19.95
2022-10-21T07:41:59.163Z,19.98
2022-10-21T07:44:46.377Z,20.00
2022-10-21T07:47:32.899Z,20.01
2022-10-21T07:50:20.604Z,20.02
2022-10-21T07:53:12.489Z,20.13
2022-10-21T07:56:05.499Z,20.13
2022-10-21T07:58:54.059Z,20.13
2022-10-21T08:01:44.340Z,20.13
2022-10-21T08:04:33.370Z,20.20
2022-10-21T08:07:19.842Z,20.19
2022-10-21T08:10:07.589Z,20.16
2022-10-21T08:12:54.128Z,20.16
2022-10-21T08:15:44.171Z,20.25
2022-10-21T08:18:31.077Z,20.22
2022-10-21T08:21:18.807Z,20.33
2022-10-21T08:24:06.115Z,20.45
2022-10-21T08:26:53.019Z,20.55
2022-10-21T08:29:40.275Z,20.57
2022-10-21T08:32:29.301Z,20.71
2022-10-21T08:35:16.406Z,20.89
2022-10-21T08:38:03.729Z,21.03
2022-10-21T08:40:53.505Z,21.10
2022-10-21T08:43:44.662Z,21.14
2022-10-21T08:46:36.684Z,21.19
2022-10-21T08:49:30.896Z,21.24
2022-10-21T08:52:21.887Z,21.31
2022-10-21T08:55:16.066Z,21.39
2022-10-21T08:58:05.489Z,21.57
2022-10-21T09:00:57.453Z,21.73
2022-10-21T09:03:54.267Z,21.86
2022-10-21T09:06:52.954Z,21.95
2022-10-21T09:09:45.060Z,22.05
2022-10-21T09:12:39.692Z,22.05
2022-10-21T09:15:37.839Z,22.05
2022-10-21T09:18:38.309Z,22.05
2022-10-21T09:21:39.750Z,22.09
2022-10-21T09:24:35.282Z,22.20
2022-10-21T09:27:31.954Z,22.25
2022-10-21T09:30:30.109Z,22.33
2022-10-21T09:33:20.782Z,22.37
2022-10-21T09:36:12.379Z,22.35
2022-10-21T09:39:03.391Z,22.36
2022-10-21T09:41:59.318Z,22.40
2022-10-21T09:44:48.497Z,22.44
2022-10-21T09:47:35.271Z,22.58
2022-10-21T09:50:22.155Z,22.67
2022-10-21T09:53:16.296Z,22.81
2022-10-21T09:56:07.537Z,22.98
2022-10-21T09:59:07.584Z,23.14
2022-10-21T10:01:56.584Z,23.14
2022-10-21T10:04:43.509Z,23.10
2022-10-21T10:07:35.323Z,23.08
2022-10-21T10:10:31.924Z,22.98
2022-10-21T10:13:20.462Z,23.08
2022-10-21T10:16:26.210Z,23.10
2022-10-21T10:19:17.866Z,23.04
2022-10-21T10:22:10.814Z,22.97
2022-10-21T10:25:08.816Z,23.00
2022-10-21T10:27:59.366Z,23.02
2022-10-21T10:30:49.422Z,23.03
2022-10-21T10:33:38.034Z,23.09
2022-10-21T10:36:29.848Z,23.16
2022-10-21T10:39:22.841Z,23.26
2022-10-21T10:42:10.143Z,23.31
2022-10-21T10:45:00.444Z,23.30
2022-10-21T10:47:50.670Z,23.36
2022-10-21T10:50:47.970Z,23.38
2022-10-21T10:53:36.915Z,23.42
2022-10-21T10:56:30.404Z,23.46
2022-10-21T10:59:26.102Z,23.58
2022-10-21T11:02:24.502Z,23.73
2022-10-21T11:05:24.570Z,23.88
2022-10-21T11:08:16.465Z,24.02
2022-10-21T11:11:07.326Z,24.09
2022-10-21T11:13:54.987Z,24.19
2022-10-21T11:17:00.610Z,24.31
2022-10-21T11:19:56.492Z,24.49
2022-10-21T11:22:51.591Z,24.76
2022-10-21T11:25:44.533Z,24.94
2022-10-21T11:28:35.095Z,25.06
2022-10-21T11:31:37.364Z,25.18
2022-10-21T11:34:41.478Z,25.23
2022-10-21T11:37:44.356Z,25.26
2022-10-21T11:40:39.002Z,25.26
2022-10-21T11:43:40.308Z,25.26
2022-10-21T11:46:38.676Z,25.21
2022-10-21T11:49:42.774Z,25.17
2022-10-21T11:52:42.542Z,25.13
2022-10-21T11:55:38.803Z,25.08
2022-10-21T11:58:39.371Z,25.01
2022-10-21T12:01:42.031Z,24.95
2022-10-21T12:04:42.061Z,24.86
2022-10-21T12:07:45.927Z,24.82
2022-10-21T12:10:37.233Z,24.75
2022-10-21T12:13:29.104Z,24.62
2022-10-21T12:16:20.772Z,24.53
2022-10-21T12:19:12.459Z,24.48
2022-10-21T12:21:59.855Z,24.45
2022-10-21T12:24:54.093Z,24.44
2022-10-21T12:27:46.612Z,24.45
2022-10-21T12:30:38.993Z,24.43
2022-10-21T12:33:36.906Z,24.44
2022-10-21T12:36:40.618Z,24.47
2022-10-21T12:39:50.370Z,24.46
2022-10-21T12:42:37.378Z,24.42
2022-10-21T12:45:28.024Z,24.35
2022-10-21T12:48:33.138Z,24.33
2022-10-21T12:51:23.526Z,24.30
2022-10-21T12:54:17.799Z,24.21
2022-10-21T12:57:08.064Z,24.12
2022-10-21T13:00:16.710Z,23.99
2022-10-21T13:03:06.464Z,23.87
2022-10-21T13:06:04.646Z,23.74
2022-10-21T13:08:56.327Z,23.66
2022-10-21T13:11:43.138Z,23.59
2022-10-21T13:14:39.770Z,23.52
2022-10-21T13:17:50.518Z,23.44
2022-10-21T13:20:49.143Z,23.34
2022-10-21T13:23:44.304Z,23.28
2022-10-21T13:26:31.552Z,23.22
2022-10-21T13:29:41.534Z,23.17
2022-10-21T13:32:31.266Z,23.16
2022-10-21T13:35:32.845Z,23.10
2022-10-21T13:38:23.229Z,23.09
2022-10-21T13:41:23.651Z,23.08
2022-10-21T13:44:27.531Z,23.09
2022-10-21T13:47:30.238Z,23.12
2022-10-21T13:50:21.170Z,23.10
2022-10-21T13:53:23.417Z,23.08
2022-10-21T13:56:22.136Z,23.17
2022-10-21T13:59:22.573Z,23.21
2022-10-21T14:02:24.874Z,23.24
2022-10-21T14:05:28.394Z,23.35
2022-10-21T14:08:26.582Z,23.44
2022-10-21T14:11:18.678Z,23.50
2022-10-21T14:14:11.978Z,23.57
2022-10-21T14:17:01.287Z,23.67
2022-10-21T14:19:52.322Z,23.76
2022-10-21T14:22:40.174Z,23.84
2022-10-21T14:25:27.861Z,23.86
2022-10-21T14:28:15.057Z,23.88
2022-10-21T14:33:55.389Z,23.88
2022-10-21T14:37:09.245Z,23.85
2022-10-21T14:40:11.005Z,23.77
2022-10-21T14:42:59.642Z,23.66
2022-10-21T14:45:49.213Z,23.56
2022-10-21T14:48:39.679Z,23.50
2022-10-21T14:51:27.835Z,23.40
2022-10-21T14:54:27.110Z,23.35
2022-10-21T14:57:35.211Z,23.28
2022-10-21T15:00:29.044Z,23.21
2022-10-21T15:03:38.702Z,23.15
2022-10-21T15:06:28.734Z,23.14
2022-10-21T15:09:23.166Z,23.07
2022-10-21T15:12:19.803Z,23.03
2022-10-21T15:15:43.415Z,23.03
2022-10-21T15:18:32.807Z,22.99
2022-10-21T15:21:37.497Z,22.87
2022-10-21T15:24:29.301Z,22.86
2022-10-21T15:27:19.301Z,22.80
2022-10-21T15:30:15.069Z,22.76
2022-10-21T15:33:02.103Z,22.71
2022-10-21T15:36:00.984Z,22.66
2022-10-21T15:38:49.628Z,22.65
2022-10-21T15:41:36.263Z,22.56
2022-10-21T15:44:27.455Z,22.52
2022-10-21T15:47:14.544Z,22.47
2022-10-21T15:50:01.498Z,22.42
2022-10-21T15:52:48.528Z,22.38
2022-10-21T15:55:38.307Z,22.32
2022-10-21T15:58:25.270Z,22.29
2022-10-21T16:01:13.816Z,22.24
2022-10-21T16:04:02.734Z,22.21
2022-10-21T16:06:51.492Z,22.19
2022-10-21T16:09:38.734Z,22.16
2022-10-21T16:12:27.345Z,22.15
2022-10-21T16:15:15.392Z,22.09
2022-10-21T16:18:02.460Z,22.07
2022-10-21T16:20:49.201Z,22.05
2022-10-21T16:23:35.916Z,22.04
2022-10-21T16:26:25.866Z,22.01
2022-10-21T16:32:11.915Z,21.97
2022-10-21T16:34:58.762Z,21.96
2022-10-21T16:37:46.214Z,21.91
2022-10-21T16:40:35.881Z,21.90
2022-10-21T16:43:24.081Z,21.85
2022-10-21T16:46:24.163Z,21.81
2022-10-21T16:49:14.710Z,21.79
2022-10-21T16:52:02.303Z,21.77
2022-10-21T16:54:50.335Z,21.79
2022-10-21T16:57:37.574Z,21.78
2022-10-21T17:00:24.775Z,21.80
2022-10-21T17:03:13.214Z,21.79
2022-10-21T17:06:00.725Z,21.79
2022-10-21T17:08:47.878Z,21.79
2022-10-21T17:11:37.315Z,21.76
2022-10-21T17:14:24.340Z,21.74
2022-10-21T17:17:11.829Z,21.68
2022-10-21T17:20:00.103Z,21.65
2022-10-21T17:22:47.599Z,21.61
2022-10-21T17:25:34.596Z,21.59
2022-10-21T17:28:22.221Z,21.59
2022-10-21T17:31:13.117Z,21.56
2022-10-21T17:34:06.286Z,21.51
2022-10-21T17:36:55.221Z,21.45
2022-10-21T17:39:46.832Z,21.43
2022-10-21T17:42:33.851Z,21.39
2022-10-21T17:45:22.699Z,21.39
2022-10-21T17:48:10.014Z,21.38
2022-10-21T17:50:59.689Z,21.38
2022-10-21T17:53:49.459Z,21.39
2022-10-21T17:56:36.458Z,21.39
2022-10-21T17:59:23.488Z,21.40
2022-10-21T18:02:11.026Z,21.40
2022-10-21T18:04:58.242Z,21.39
2022-10-21T18:07:45.113Z,21.37
2022-10-21T18:10:33.865Z,21.33
2022-10-21T18:13:20.656Z,21.24
2022-10-21T18:16:10.235Z,21.22
2022-10-21T18:19:01.732Z,21.16
2022-10-21T18:21:50.688Z,21.12
2022-10-21T18:24:37.919Z,21.11
2022-10-21T18:27:26.372Z,21.07
2022-10-21T18:30:13.664Z,21.01
2022-10-21T18:33:00.881Z,21.00
2022-10-21T18:35:47.703Z,20.96
2022-10-21T18:38:35.013Z,20.93
2022-10-21T18:41:22.038Z,20.89
2022-10-21T18:44:13.738Z,20.85
2022-10-21T18:47:00.233Z,20.79
2022-10-21T18:49:47.549Z,20.76
2022-10-21T18:52:34.261Z,20.75
2022-10-21T18:55:21.871Z,20.75
2022-10-21T18:58:08.718Z,20.77
2022-10-21T19:00:57.372Z,20.75
2022-10-21T19:03:44.628Z,20.74
2022-10-21T19:06:35.944Z,20.77
2022-10-21T19:09:25.716Z,20.75
2022-10-21T19:12:16.372Z,20.65
2022-10-21T19:15:06.397Z,20.68
2022-10-21T19:17:55.024Z,20.70
2022-10-21T19:20:41.732Z,20.66
2022-10-21T19:23:31.792Z,20.63
2022-10-21T19:26:22.459Z,20.57
2022-10-21T19:29:13.313Z,20.47
2022-10-21T19:32:00.305Z,20.35
2022-10-21T19:34:48.743Z,20.38
2022-10-21T19:37:35.663Z,20.39
2022-10-21T19:40:23.681Z,20.40
2022-10-21T19:43:10.705Z,20.39
2022-10-21T19:46:02.505Z,20.39
2022-10-21T19:48:49.435Z,20.35
2022-10-21T19:51:38.095Z,20.33
2022-10-21T19:54:24.766Z,20.32
2022-10-21T19:57:11.556Z,20.32
2022-10-21T19:59:58.369Z,20.32
2022-10-21T20:02:45.123Z,20.30
2022-10-21T20:05:34.435Z,20.30
2022-10-21T20:08:22.615Z,20.33
2022-10-21T20:11:13.049Z,20.34
2022-10-21T20:14:00.711Z,20.36
2022-10-21T20:16:49.838Z,20.35
2022-10-21T20:19:36.318Z,20.32
2022-10-21T20:22:23.552Z,20.28
2022-10-21T20:25:12.396Z,20.25
2022-10-21T20:27:59.819Z,20.23
2022-10-21T20:30:46.519Z,20.22
2022-10-21T20:33:36.277Z,20.22
2022-10-21T20:36:24.747Z,20.23
2022-10-21T20:39:13.397Z,20.20
2022-10-21T20:42:01.619Z,20.17
2022-10-21T20:44:48.839Z,20.17
2022-10-21T20:47:35.727Z,20.16
2022-10-21T20:50:23.145Z,20.14
2022-10-21T20:53:09.759Z,20.05
2022-10-21T20:55:57.284Z,20.05
2022-10-21T20:58:45.829Z,20.01
2022-10-21T21:01:35.252Z,19.97
2022-10-21T21:04:23.634Z,19.93
2022-10-21T21:07:12.809Z,19.89
2022-10-21T21:10:02.906Z,19.84
2022-10-21T21:12:50.284Z,19.80
2022-10-21T21:15:38.322Z,19.79
2022-10-21T21:18:25.666Z,19.77
2022-10-21T21:21:14.479Z,19.73
2022-10-21T21:24:03.027Z,19.70
2022-10-21T21:26:49.955Z,19.69
2022-10-21T21:29:36.934Z,19.66
2022-10-21T21:32:25.275Z,19.65
2022-10-21T21:35:12.700Z,19.63
2022-10-21T21:37:59.591Z,19.61
2022-10-21T21:40:47.026Z,19.59
2022-10-21T21:43:34.558Z,19.58
2022-10-21T21:46:23.837Z,19.53
2022-10-21T21:49:11.818Z,19.50
2022-10-21T21:51:59.148Z,19.49
2022-10-21T21:54:46.054Z,19.51
2022-10-21T21:57:34.421Z,19.50
2022-10-21T22:00:21.148Z,19.55
2022-10-21T22:03:08.191Z,19.60
2022-10-21T22:05:56.232Z,19.64
2022-10-21T22:08:43.480Z,19.67
2022-10-21T22:11:33.227Z,19.70
2022-10-21T22:14:20.439Z,19.70
2022-10-21T22:17:07.447Z,19.70
2022-10-21T22:19:54.760Z,19.69
2022-10-21T22:22:42.894Z,19.68
2022-10-21T22:25:30.314Z,19.64
2022-10-21T22:28:17.243Z,19.63
2022-10-21T22:31:06.722Z,19.62
2022-10-21T22:33:53.695Z,19.61
2022-10-21T22:36:41.015Z,19.61
2022-10-21T22:39:29.250Z,19.61
2022-10-21T22:42:16.576Z,19.58
2022-10-21T22:45:03.476Z,19.57
2022-10-21T22:47:50.876Z,19.59
2022-10-21T22:50:37.679Z,19.63
2022-10-21T22:53:24.793Z,19.69
2022-10-21T22:56:13.243Z,19.75
2022-10-21T22:59:00.669Z,19.79
2022-10-21T23:01:47.557Z,19.81
2022-10-21T23:04:34.574Z,19.82
2022-10-21T23:07:21.677Z,19.83
2022-10-21T23:10:09.862Z,19.80
2022-10-21T23:12:58.152Z,19.77
2022-10-21T23:15:46.040Z,19.73
2022-10-21T23:18:33.090Z,19.71
2022-10-21T23:21:20.098Z,19.68
2022-10-21T23:24:07.835Z,19.69
2022-10-21T23:26:59.093Z,19.66
2022-10-21T23:29:49.637Z,19.66
2022-10-21T23:32:37.184Z,19.61
2022-10-21T23:35:24.761Z,19.58
2022-10-21T23:38:12.074Z,19.57
2022-10-21T23:40:58.910Z,19.57
2022-10-21T23:43:46.090Z,19.54
2022-10-21T23:46:34.663Z,19.53
2022-10-21T23:49:22.073Z,19.55
2022-10-21T23:52:09.163Z,19.56
2022-10-21T23:54:55.972Z,19.58
2022-10-21T23:57:43.008Z,19.60
